sensor_id;sensor_type;location;lat;lon;timestamp;temperature;humidity
36424;DHT22;22458;45.328;9.514;2023-02-25T00:02:08;13.70;91.50
36424;DHT22;22458;45.328;9.514;2023-02-25T00:04:34;13.70;91.80
36424;DHT22;22458;45.328;9.514;2023-02-25T00:07:00;13.70;91.60
36424;DHT22;22458;45.328;9.514;2023-02-25T00:09:27;13.60;91.50
36424;DHT22;22458;45.328;9.514;2023-02-25T00:11:53;13.60;91.50
36424;DHT22;22458;45.328;9.514;2023-02-25T00:14:18;13.60;91.50
36424;DHT22;22458;45.328;9.514;2023-02-25T00:16:44;13.60;91.50
36424;DHT22;22458;45.328;9.514;2023-02-25T00:19:10;13.60;91.60
36424;DHT22;22458;45.328;9.514;2023-02-25T00:21:36;13.60;91.60
36424;DHT22;22458;45.328;9.514;2023-02-25T00:24:02;13.60;91.60
36424;DHT22;22458;45.328;9.514;2023-02-25T00:26:28;13.60;91.60
36424;DHT22;22458;45.328;9.514;2023-02-25T00:28:54;13.50;91.70
36424;DHT22;22458;45.328;9.514;2023-02-25T00:31:22;13.60;91.80
36424;DHT22;22458;45.328;9.514;2023-02-25T00:33:49;13.60;91.80
36424;DHT22;22458;45.328;9.514;2023-02-25T00:36:21;13.60;91.70
36424;DHT22;22458;45.328;9.514;2023-02-25T00:38:54;13.60;91.80
36424;DHT22;22458;45.328;9.514;2023-02-25T00:41:26;13.60;91.80
36424;DHT22;22458;45.328;9.514;2023-02-25T00:43:55;13.50;91.80
36424;DHT22;22458;45.328;9.514;2023-02-25T00:46:21;13.50;91.80
36424;DHT22;22458;45.328;9.514;2023-02-25T00:48:48;13.50;91.80
36424;DHT22;22458;45.328;9.514;2023-02-25T00:51:17;13.50;91.90
36424;DHT22;22458;45.328;9.514;2023-02-25T00:53:43;13.40;91.90
36424;DHT22;22458;45.328;9.514;2023-02-25T00:56:12;13.30;91.90
36424;DHT22;22458;45.328;9.514;2023-02-25T00:58:41;13.30;92.00
36424;DHT22;22458;45.328;9.514;2023-02-25T01:03:46;13.20;92.10
36424;DHT22;22458;45.328;9.514;2023-02-25T01:06:13;13.20;92.10
36424;DHT22;22458;45.328;9.514;2023-02-25T01:08:40;13.10;92.10
36424;DHT22;22458;45.328;9.514;2023-02-25T01:11:14;13.10;92.10
36424;DHT22;22458;45.328;9.514;2023-02-25T01:13:41;13.10;92.10
36424;DHT22;22458;45.328;9.514;2023-02-25T01:16:20;13.10;92.10
36424;DHT22;22458;45.328;9.514;2023-02-25T01:18:46;13.00;92.00
36424;DHT22;22458;45.328;9.514;2023-02-25T01:21:15;12.90;92.10
36424;DHT22;22458;45.328;9.514;2023-02-25T01:23:46;12.90;92.30
36424;DHT22;22458;45.328;9.514;2023-02-25T01:26:13;12.90;92.20
36424;DHT22;22458;45.328;9.514;2023-02-25T01:28:39;12.90;92.20
36424;DHT22;22458;45.328;9.514;2023-02-25T01:31:06;12.90;92.20
36424;DHT22;22458;45.328;9.514;2023-02-25T01:33:35;12.80;92.10
36424;DHT22;22458;45.328;9.514;2023-02-25T01:36:05;12.80;92.20
36424;DHT22;22458;45.328;9.514;2023-02-25T01:38:32;12.80;92.20
36424;DHT22;22458;45.328;9.514;2023-02-25T01:40:59;12.80;92.10
36424;DHT22;22458;45.328;9.514;2023-02-25T01:43:25;12.80;92.00
36424;DHT22;22458;45.328;9.514;2023-02-25T01:45:53;12.80;92.00
36424;DHT22;22458;45.328;9.514;2023-02-25T01:48:46;12.70;92.10
36424;DHT22;22458;45.328;9.514;2023-02-25T01:51:12;12.60;92.00
36424;DHT22;22458;45.328;9.514;2023-02-25T01:53:43;12.60;92.10
36424;DHT22;22458;45.328;9.514;2023-02-25T01:56:11;12.50;92.10
36424;DHT22;22458;45.328;9.514;2023-02-25T01:58:39;12.50;92.10
36424;DHT22;22458;45.328;9.514;2023-02-25T02:01:11;12.50;92.10
36424;DHT22;22458;45.328;9.514;2023-02-25T02:03:39;12.50;92.00
36424;DHT22;22458;45.328;9.514;2023-02-25T02:08:39;12.50;91.90
36424;DHT22;22458;45.328;9.514;2023-02-25T02:11:05;12.50;91.90
36424;DHT22;22458;45.328;9.514;2023-02-25T02:13:33;12.40;91.90
36424;DHT22;22458;45.328;9.514;2023-02-25T02:18:42;12.40;92.00
36424;DHT22;22458;45.328;9.514;2023-02-25T02:21:59;12.40;92.00
36424;DHT22;22458;45.328;9.514;2023-02-25T02:39:12;12.40;92.80
36424;DHT22;22458;45.328;9.514;2023-02-25T02:42:08;12.50;92.90
36424;DHT22;22458;45.328;9.514;2023-02-25T02:44:44;12.40;92.90
36424;DHT22;22458;45.328;9.514;2023-02-25T02:47:24;12.40;92.90
36424;DHT22;22458;45.328;9.514;2023-02-25T02:50:06;12.30;93.00
36424;DHT22;22458;45.328;9.514;2023-02-25T02:52:37;12.20;93.10
36424;DHT22;22458;45.328;9.514;2023-02-25T02:55:21;12.10;93.30
36424;DHT22;22458;45.328;9.514;2023-02-25T02:57:54;12.10;93.50
36424;DHT22;22458;45.328;9.514;2023-02-25T03:00:24;12.10;93.50
36424;DHT22;22458;45.328;9.514;2023-02-25T03:03:02;12.20;93.40
36424;DHT22;22458;45.328;9.514;2023-02-25T03:05:33;12.30;93.30
36424;DHT22;22458;45.328;9.514;2023-02-25T03:08:10;12.30;93.20
36424;DHT22;22458;45.328;9.514;2023-02-25T03:10:38;12.30;93.30
36424;DHT22;22458;45.328;9.514;2023-02-25T03:13:05;12.30;93.30
36424;DHT22;22458;45.328;9.514;2023-02-25T03:15:32;12.30;93.30
36424;DHT22;22458;45.328;9.514;2023-02-25T03:18:02;12.40;93.30
36424;DHT22;22458;45.328;9.514;2023-02-25T03:20:44;12.40;93.20
36424;DHT22;22458;45.328;9.514;2023-02-25T03:23:27;12.40;93.10
36424;DHT22;22458;45.328;9.514;2023-02-25T03:26:31;12.20;93.10
36424;DHT22;22458;45.328;9.514;2023-02-25T03:29:00;12.20;93.30
36424;DHT22;22458;45.328;9.514;2023-02-25T03:31:56;12.10;93.40
36424;DHT22;22458;45.328;9.514;2023-02-25T03:34:34;12.20;93.40
36424;DHT22;22458;45.328;9.514;2023-02-25T03:37:04;12.20;93.50
36424;DHT22;22458;45.328;9.514;2023-02-25T03:39:36;12.30;93.40
36424;DHT22;22458;45.328;9.514;2023-02-25T03:42:05;12.20;93.50
36424;DHT22;22458;45.328;9.514;2023-02-25T03:44:45;12.20;93.60
36424;DHT22;22458;45.328;9.514;2023-02-25T03:47:13;12.20;93.70
36424;DHT22;22458;45.328;9.514;2023-02-25T03:49:58;12.20;93.70
36424;DHT22;22458;45.328;9.514;2023-02-25T03:52:26;12.30;93.70
36424;DHT22;22458;45.328;9.514;2023-02-25T03:54:57;12.30;93.80
36424;DHT22;22458;45.328;9.514;2023-02-25T03:57:26;12.30;93.90
36424;DHT22;22458;45.328;9.514;2023-02-25T03:59:58;12.20;94.00
36424;DHT22;22458;45.328;9.514;2023-02-25T04:02:27;12.10;94.20
36424;DHT22;22458;45.328;9.514;2023-02-25T04:04:54;12.10;94.20
36424;DHT22;22458;45.328;9.514;2023-02-25T04:07:20;12.20;94.30
36424;DHT22;22458;45.328;9.514;2023-02-25T04:09:46;12.20;94.20
36424;DHT22;22458;45.328;9.514;2023-02-25T04:12:12;12.20;94.40
36424;DHT22;22458;45.328;9.514;2023-02-25T04:14:38;12.20;94.20
36424;DHT22;22458;45.328;9.514;2023-02-25T04:17:03;12.20;94.20
36424;DHT22;22458;45.328;9.514;2023-02-25T04:19:31;12.20;94.30
36424;DHT22;22458;45.328;9.514;2023-02-25T04:21:57;12.00;94.40
36424;DHT22;22458;45.328;9.514;2023-02-25T04:24:25;12.00;94.50
36424;DHT22;22458;45.328;9.514;2023-02-25T04:26:51;12.00;94.50
36424;DHT22;22458;45.328;9.514;2023-02-25T04:29:23;11.90;94.60
36424;DHT22;22458;45.328;9.514;2023-02-25T04:31:50;11.80;94.80
36424;DHT22;22458;45.328;9.514;2023-02-25T04:34:16;11.80;94.90
36424;DHT22;22458;45.328;9.514;2023-02-25T04:36:42;11.80;94.90
36424;DHT22;22458;45.328;9.514;2023-02-25T04:39:11;11.80;94.80
36424;DHT22;22458;45.328;9.514;2023-02-25T04:41:38;11.80;95.00
36424;DHT22;22458;45.328;9.514;2023-02-25T04:44:05;11.80;94.80
36424;DHT22;22458;45.328;9.514;2023-02-25T04:46:37;11.70;94.90
36424;DHT22;22458;45.328;9.514;2023-02-25T04:49:04;11.70;94.90
36424;DHT22;22458;45.328;9.514;2023-02-25T04:51:30;11.70;94.90
36424;DHT22;22458;45.328;9.514;2023-02-25T04:53:56;11.80;94.90
36424;DHT22;22458;45.328;9.514;2023-02-25T04:56:22;11.70;94.80
36424;DHT22;22458;45.328;9.514;2023-02-25T04:58:48;11.60;95.00
36424;DHT22;22458;45.328;9.514;2023-02-25T05:01:14;11.60;95.10
36424;DHT22;22458;45.328;9.514;2023-02-25T05:03:40;11.60;95.10
36424;DHT22;22458;45.328;9.514;2023-02-25T05:06:06;11.60;95.00
36424;DHT22;22458;45.328;9.514;2023-02-25T05:08:33;11.70;95.10
36424;DHT22;22458;45.328;9.514;2023-02-25T05:10:59;11.60;95.20
36424;DHT22;22458;45.328;9.514;2023-02-25T05:13:26;11.50;95.30
36424;DHT22;22458;45.328;9.514;2023-02-25T05:16:02;11.50;95.40
36424;DHT22;22458;45.328;9.514;2023-02-25T05:18:28;11.40;95.40
36424;DHT22;22458;45.328;9.514;2023-02-25T05:20:54;11.40;95.50
36424;DHT22;22458;45.328;9.514;2023-02-25T05:23:20;11.40;95.40
36424;DHT22;22458;45.328;9.514;2023-02-25T05:25:46;11.50;95.30
36424;DHT22;22458;45.328;9.514;2023-02-25T05:28:11;11.60;95.20
36424;DHT22;22458;45.328;9.514;2023-02-25T05:30:38;11.60;95.00
36424;DHT22;22458;45.328;9.514;2023-02-25T05:33:05;11.60;95.00
36424;DHT22;22458;45.328;9.514;2023-02-25T05:35:31;11.50;95.00
36424;DHT22;22458;45.328;9.514;2023-02-25T05:37:58;11.50;95.00
36424;DHT22;22458;45.328;9.514;2023-02-25T05:40:23;11.50;95.00
36424;DHT22;22458;45.328;9.514;2023-02-25T05:42:49;11.50;95.10
36424;DHT22;22458;45.328;9.514;2023-02-25T05:45:15;11.50;95.10
36424;DHT22;22458;45.328;9.514;2023-02-25T05:47:43;11.50;95.10
36424;DHT22;22458;45.328;9.514;2023-02-25T05:50:09;11.50;95.20
36424;DHT22;22458;45.328;9.514;2023-02-25T05:52:35;11.60;95.30
36424;DHT22;22458;45.328;9.514;2023-02-25T05:55:01;11.60;95.20
36424;DHT22;22458;45.328;9.514;2023-02-25T05:57:27;11.70;95.20
36424;DHT22;22458;45.328;9.514;2023-02-25T05:59:53;11.60;95.10
36424;DHT22;22458;45.328;9.514;2023-02-25T06:02:18;11.60;95.20
36424;DHT22;22458;45.328;9.514;2023-02-25T06:04:44;11.60;95.20
36424;DHT22;22458;45.328;9.514;2023-02-25T06:07:10;11.60;95.20
36424;DHT22;22458;45.328;9.514;2023-02-25T06:09:36;11.60;95.20
36424;DHT22;22458;45.328;9.514;2023-02-25T06:12:02;11.70;95.10
36424;DHT22;22458;45.328;9.514;2023-02-25T06:14:27;11.70;95.00
36424;DHT22;22458;45.328;9.514;2023-02-25T06:16:53;11.60;95.00
36424;DHT22;22458;45.328;9.514;2023-02-25T06:19:22;11.50;95.10
36424;DHT22;22458;45.328;9.514;2023-02-25T06:21:48;11.50;95.20
36424;DHT22;22458;45.328;9.514;2023-02-25T06:24:14;11.50;95.10
36424;DHT22;22458;45.328;9.514;2023-02-25T06:26:40;11.40;95.20
36424;DHT22;22458;45.328;9.514;2023-02-25T06:29:08;11.40;95.40
36424;DHT22;22458;45.328;9.514;2023-02-25T06:31:34;11.40;95.40
36424;DHT22;22458;45.328;9.514;2023-02-25T06:34:00;11.50;95.40
36424;DHT22;22458;45.328;9.514;2023-02-25T06:36:26;11.50;95.50
36424;DHT22;22458;45.328;9.514;2023-02-25T06:38:52;11.60;95.40
36424;DHT22;22458;45.328;9.514;2023-02-25T06:41:20;11.70;95.60
36424;DHT22;22458;45.328;9.514;2023-02-25T06:43:46;11.70;95.30
36424;DHT22;22458;45.328;9.514;2023-02-25T06:46:21;11.60;95.30
36424;DHT22;22458;45.328;9.514;2023-02-25T06:48:47;11.60;95.40
36424;DHT22;22458;45.328;9.514;2023-02-25T06:51:13;11.60;95.40
36424;DHT22;22458;45.328;9.514;2023-02-25T06:53:41;11.70;95.40
36424;DHT22;22458;45.328;9.514;2023-02-25T06:56:09;11.80;95.40
36424;DHT22;22458;45.328;9.514;2023-02-25T06:58:36;11.90;95.30
36424;DHT22;22458;45.328;9.514;2023-02-25T07:01:13;11.90;95.20
36424;DHT22;22458;45.328;9.514;2023-02-25T07:03:39;11.90;95.30
36424;DHT22;22458;45.328;9.514;2023-02-25T07:06:06;11.90;95.30
36424;DHT22;22458;45.328;9.514;2023-02-25T07:08:33;11.90;95.20
36424;DHT22;22458;45.328;9.514;2023-02-25T07:13:47;12.00;95.10
36424;DHT22;22458;45.328;9.514;2023-02-25T07:16:14;12.00;95.10
36424;DHT22;22458;45.328;9.514;2023-02-25T07:18:42;12.10;95.00
36424;DHT22;22458;45.328;9.514;2023-02-25T07:21:09;12.10;95.00
36424;DHT22;22458;45.328;9.514;2023-02-25T07:23:37;12.00;95.10
36424;DHT22;22458;45.328;9.514;2023-02-25T07:26:04;12.10;95.10
36424;DHT22;22458;45.328;9.514;2023-02-25T07:28:30;12.10;95.10
36424;DHT22;22458;45.328;9.514;2023-02-25T07:31:02;12.00;95.10
36424;DHT22;22458;45.328;9.514;2023-02-25T07:33:29;12.10;95.20
36424;DHT22;22458;45.328;9.514;2023-02-25T07:35:56;12.10;95.20
36424;DHT22;22458;45.328;9.514;2023-02-25T07:38:21;12.10;95.10
36424;DHT22;22458;45.328;9.514;2023-02-25T07:40:47;12.10;95.10
36424;DHT22;22458;45.328;9.514;2023-02-25T07:43:13;12.20;95.10
36424;DHT22;22458;45.328;9.514;2023-02-25T07:45:40;12.20;95.00
36424;DHT22;22458;45.328;9.514;2023-02-25T07:48:06;12.20;95.00
36424;DHT22;22458;45.328;9.514;2023-02-25T07:50:32;12.20;95.00
36424;DHT22;22458;45.328;9.514;2023-02-25T07:52:58;12.20;95.00
36424;DHT22;22458;45.328;9.514;2023-02-25T07:55:24;12.20;95.10
36424;DHT22;22458;45.328;9.514;2023-02-25T07:57:50;12.20;95.10
36424;DHT22;22458;45.328;9.514;2023-02-25T08:00:16;12.30;95.10
36424;DHT22;22458;45.328;9.514;2023-02-25T08:02:43;12.40;95.00
36424;DHT22;22458;45.328;9.514;2023-02-25T08:05:10;12.40;94.90
36424;DHT22;22458;45.328;9.514;2023-02-25T08:07:36;12.40;94.90
36424;DHT22;22458;45.328;9.514;2023-02-25T08:10:03;12.30;95.00
36424;DHT22;22458;45.328;9.514;2023-02-25T08:12:28;12.30;95.10
36424;DHT22;22458;45.328;9.514;2023-02-25T08:14:54;12.20;95.10
36424;DHT22;22458;45.328;9.514;2023-02-25T08:17:21;12.30;95.20
36424;DHT22;22458;45.328;9.514;2023-02-25T08:19:47;12.20;95.20
36424;DHT22;22458;45.328;9.514;2023-02-25T08:22:13;12.10;95.30
36424;DHT22;22458;45.328;9.514;2023-02-25T08:24:39;12.10;95.30
36424;DHT22;22458;45.328;9.514;2023-02-25T08:27:06;12.00;95.50
36424;DHT22;22458;45.328;9.514;2023-02-25T08:29:36;12.00;95.60
36424;DHT22;22458;45.328;9.514;2023-02-25T08:32:04;12.20;95.60
36424;DHT22;22458;45.328;9.514;2023-02-25T08:34:30;12.20;95.50
36424;DHT22;22458;45.328;9.514;2023-02-25T08:36:55;12.20;95.50
36424;DHT22;22458;45.328;9.514;2023-02-25T08:39:21;12.20;95.50
36424;DHT22;22458;45.328;9.514;2023-02-25T08:41:47;12.20;95.50
36424;DHT22;22458;45.328;9.514;2023-02-25T08:44:13;12.30;95.40
36424;DHT22;22458;45.328;9.514;2023-02-25T08:46:40;12.30;95.40
36424;DHT22;22458;45.328;9.514;2023-02-25T08:49:06;12.30;95.50
36424;DHT22;22458;45.328;9.514;2023-02-25T08:51:32;12.30;95.50
36424;DHT22;22458;45.328;9.514;2023-02-25T08:54:03;12.30;95.50
36424;DHT22;22458;45.328;9.514;2023-02-25T08:56:32;12.30;95.60
36424;DHT22;22458;45.328;9.514;2023-02-25T08:58:58;12.30;95.60
36424;DHT22;22458;45.328;9.514;2023-02-25T09:01:24;12.40;95.60
36424;DHT22;22458;45.328;9.514;2023-02-25T09:03:50;12.50;95.50
36424;DHT22;22458;45.328;9.514;2023-02-25T09:06:20;12.60;95.50
36424;DHT22;22458;45.328;9.514;2023-02-25T09:08:46;12.70;95.50
36424;DHT22;22458;45.328;9.514;2023-02-25T09:11:13;12.80;95.40
36424;DHT22;22458;45.328;9.514;2023-02-25T09:13:38;12.90;95.40
36424;DHT22;22458;45.328;9.514;2023-02-25T09:16:04;12.90;95.30
36424;DHT22;22458;45.328;9.514;2023-02-25T09:18:30;13.00;95.20
36424;DHT22;22458;45.328;9.514;2023-02-25T09:20:56;13.10;95.20
36424;DHT22;22458;45.328;9.514;2023-02-25T09:23:22;13.10;95.20
36424;DHT22;22458;45.328;9.514;2023-02-25T09:25:48;13.10;95.10
36424;DHT22;22458;45.328;9.514;2023-02-25T09:28:13;13.20;95.10
36424;DHT22;22458;45.328;9.514;2023-02-25T09:30:39;13.20;95.10
36424;DHT22;22458;45.328;9.514;2023-02-25T09:33:05;13.30;95.10
36424;DHT22;22458;45.328;9.514;2023-02-25T09:35:31;13.40;95.00
36424;DHT22;22458;45.328;9.514;2023-02-25T09:37:57;13.50;94.90
36424;DHT22;22458;45.328;9.514;2023-02-25T09:40:23;13.50;94.80
36424;DHT22;22458;45.328;9.514;2023-02-25T09:45:22;13.70;94.60
36424;DHT22;22458;45.328;9.514;2023-02-25T09:47:51;13.70;94.50
36424;DHT22;22458;45.328;9.514;2023-02-25T09:50:33;13.70;94.60
36424;DHT22;22458;45.328;9.514;2023-02-25T09:53:17;13.80;94.10
36424;DHT22;22458;45.328;9.514;2023-02-25T09:55:47;13.80;94.00
36424;DHT22;22458;45.328;9.514;2023-02-25T09:58:29;13.90;94.00
36424;DHT22;22458;45.328;9.514;2023-02-25T10:03:41;14.00;93.80
36424;DHT22;22458;45.328;9.514;2023-02-25T10:09:00;14.20;93.30
36424;DHT22;22458;45.328;9.514;2023-02-25T10:11:52;14.30;93.30
36424;DHT22;22458;45.328;9.514;2023-02-25T10:23:41;14.30;92.90
36424;DHT22;22458;45.328;9.514;2023-02-25T10:26:24;14.40;92.70
36424;DHT22;22458;45.328;9.514;2023-02-25T10:31:41;14.50;92.50
36424;DHT22;22458;45.328;9.514;2023-02-25T10:34:22;14.50;92.30
36424;DHT22;22458;45.328;9.514;2023-02-25T10:36:56;14.60;92.20
36424;DHT22;22458;45.328;9.514;2023-02-25T10:39:23;14.70;92.10
36424;DHT22;22458;45.328;9.514;2023-02-25T10:41:49;14.70;92.10
36424;DHT22;22458;45.328;9.514;2023-02-25T10:44:15;14.80;91.90
36424;DHT22;22458;45.328;9.514;2023-02-25T10:46:44;14.90;91.80
36424;DHT22;22458;45.328;9.514;2023-02-25T10:49:19;15.00;91.70
36424;DHT22;22458;45.328;9.514;2023-02-25T10:51:59;15.00;91.50
36424;DHT22;22458;45.328;9.514;2023-02-25T10:54:31;15.10;91.50
36424;DHT22;22458;45.328;9.514;2023-02-25T10:57:01;15.20;91.30
36424;DHT22;22458;45.328;9.514;2023-02-25T10:59:38;15.20;91.00
36424;DHT22;22458;45.328;9.514;2023-02-25T11:02:22;15.20;91.00
36424;DHT22;22458;45.328;9.514;2023-02-25T11:04:50;15.40;90.80
36424;DHT22;22458;45.328;9.514;2023-02-25T11:10:20;15.50;90.60
36424;DHT22;22458;45.328;9.514;2023-02-25T11:12:50;15.50;90.20
36424;DHT22;22458;45.328;9.514;2023-02-25T11:17:52;15.30;90.10
36424;DHT22;22458;45.328;9.514;2023-02-25T11:20:24;15.40;90.10
36424;DHT22;22458;45.328;9.514;2023-02-25T11:22:52;15.40;90.10
36424;DHT22;22458;45.328;9.514;2023-02-25T11:25:23;15.40;90.20
36424;DHT22;22458;45.328;9.514;2023-02-25T11:27:55;15.60;90.20
36424;DHT22;22458;45.328;9.514;2023-02-25T11:30:43;15.60;89.40
36424;DHT22;22458;45.328;9.514;2023-02-25T11:33:33;15.60;88.40
36424;DHT22;22458;45.328;9.514;2023-02-25T11:36:00;15.60;88.90
36424;DHT22;22458;45.328;9.514;2023-02-25T11:38:31;15.70;88.50
36424;DHT22;22458;45.328;9.514;2023-02-25T11:40:58;15.80;87.70
36424;DHT22;22458;45.328;9.514;2023-02-25T11:43:26;15.90;87.70
36424;DHT22;22458;45.328;9.514;2023-02-25T11:46:00;16.00;87.10
36424;DHT22;22458;45.328;9.514;2023-02-25T11:48:52;16.20;86.10
36424;DHT22;22458;45.328;9.514;2023-02-25T11:51:23;16.30;85.00
36424;DHT22;22458;45.328;9.514;2023-02-25T11:56:48;16.40;85.20
36424;DHT22;22458;45.328;9.514;2023-02-25T12:08:09;16.40;82.90
36424;DHT22;22458;45.328;9.514;2023-02-25T12:19:22;16.90;80.90
36424;DHT22;22458;45.328;9.514;2023-02-25T12:28:15;17.10;80.70
36424;DHT22;22458;45.328;9.514;2023-02-25T12:35:33;17.30;80.00
36424;DHT22;22458;45.328;9.514;2023-02-25T12:38:25;17.30;80.10
36424;DHT22;22458;45.328;9.514;2023-02-25T12:41:23;17.40;79.60
36424;DHT22;22458;45.328;9.514;2023-02-25T12:44:14;17.50;79.50
36424;DHT22;22458;45.328;9.514;2023-02-25T12:49:49;17.80;79.10
36424;DHT22;22458;45.328;9.514;2023-02-25T13:01:37;18.00;78.50
36424;DHT22;22458;45.328;9.514;2023-02-25T13:23:51;17.90;78.10
36424;DHT22;22458;45.328;9.514;2023-02-25T13:30:01;17.90;78.00
36424;DHT22;22458;45.328;9.514;2023-02-25T13:37:31;18.10;76.90
36424;DHT22;22458;45.328;9.514;2023-02-25T13:40:23;18.00;77.10
36424;DHT22;22458;45.328;9.514;2023-02-25T13:48:35;17.90;77.70
36424;DHT22;22458;45.328;9.514;2023-02-25T13:51:20;17.90;77.40
36424;DHT22;22458;45.328;9.514;2023-02-25T13:54:16;18.00;77.10
36424;DHT22;22458;45.328;9.514;2023-02-25T14:08:36;17.90;77.00
36424;DHT22;22458;45.328;9.514;2023-02-25T14:21:48;17.70;76.40
36424;DHT22;22458;45.328;9.514;2023-02-25T14:27:40;17.60;76.80
36424;DHT22;22458;45.328;9.514;2023-02-25T14:30:23;17.60;77.30
36424;DHT22;22458;45.328;9.514;2023-02-25T14:38:57;17.40;77.50
36424;DHT22;22458;45.328;9.514;2023-02-25T14:44:18;17.40;78.00
36424;DHT22;22458;45.328;9.514;2023-02-25T14:46:51;17.30;78.00
36424;DHT22;22458;45.328;9.514;2023-02-25T14:49:31;17.20;78.10
36424;DHT22;22458;45.328;9.514;2023-02-25T14:52:30;17.30;78.30
36424;DHT22;22458;45.328;9.514;2023-02-25T14:55:15;17.30;78.20
36424;DHT22;22458;45.328;9.514;2023-02-25T15:00:57;17.50;78.30
36424;DHT22;22458;45.328;9.514;2023-02-25T15:06:18;17.40;78.50
36424;DHT22;22458;45.328;9.514;2023-02-25T15:14:13;17.40;78.40
36424;DHT22;22458;45.328;9.514;2023-02-25T15:19:46;17.30;78.80
36424;DHT22;22458;45.328;9.514;2023-02-25T15:22:26;17.30;78.70
36424;DHT22;22458;45.328;9.514;2023-02-25T15:27:50;17.20;79.10
36424;DHT22;22458;45.328;9.514;2023-02-25T15:30:22;17.10;79.30
36424;DHT22;22458;45.328;9.514;2023-02-25T15:35:50;17.10;79.30
36424;DHT22;22458;45.328;9.514;2023-02-25T15:38:43;17.20;79.30
36424;DHT22;22458;45.328;9.514;2023-02-25T15:51:54;17.30;79.50
36424;DHT22;22458;45.328;9.514;2023-02-25T15:56:56;17.20;79.60
36424;DHT22;22458;45.328;9.514;2023-02-25T15:59:45;17.10;79.70
36424;DHT22;22458;45.328;9.514;2023-02-25T16:04:57;16.90;80.00
36424;DHT22;22458;45.328;9.514;2023-02-25T16:07:37;16.90;80.30
36424;DHT22;22458;45.328;9.514;2023-02-25T16:10:25;16.90;80.30
36424;DHT22;22458;45.328;9.514;2023-02-25T16:12:54;16.90;80.40
36424;DHT22;22458;45.328;9.514;2023-02-25T16:15:35;16.90;80.50
36424;DHT22;22458;45.328;9.514;2023-02-25T16:20:53;16.80;80.50
36424;DHT22;22458;45.328;9.514;2023-02-25T16:23:22;16.80;80.70
36424;DHT22;22458;45.328;9.514;2023-02-25T16:30:56;16.70;81.00
36424;DHT22;22458;45.328;9.514;2023-02-25T16:33:32;16.80;81.10
36424;DHT22;22458;45.328;9.514;2023-02-25T16:41:24;16.50;81.10
36424;DHT22;22458;45.328;9.514;2023-02-25T16:43:52;16.50;81.60
36424;DHT22;22458;45.328;9.514;2023-02-25T16:46:22;16.30;81.60
36424;DHT22;22458;45.328;9.514;2023-02-25T16:48:54;16.20;81.90
36424;DHT22;22458;45.328;9.514;2023-02-25T16:51:31;16.20;82.10
36424;DHT22;22458;45.328;9.514;2023-02-25T16:54:03;16.10;82.30
36424;DHT22;22458;45.328;9.514;2023-02-25T16:56:30;16.00;82.50
36424;DHT22;22458;45.328;9.514;2023-02-25T16:59:17;16.00;82.70
36424;DHT22;22458;45.328;9.514;2023-02-25T17:01:59;15.90;82.70
36424;DHT22;22458;45.328;9.514;2023-02-25T17:04:32;15.90;82.90
36424;DHT22;22458;45.328;9.514;2023-02-25T17:07:06;15.80;82.90
36424;DHT22;22458;45.328;9.514;2023-02-25T17:09:32;15.80;82.90
36424;DHT22;22458;45.328;9.514;2023-02-25T17:12:00;15.70;83.00
36424;DHT22;22458;45.328;9.514;2023-02-25T17:14:28;15.70;83.20
36424;DHT22;22458;45.328;9.514;2023-02-25T17:16:55;15.70;83.20
36424;DHT22;22458;45.328;9.514;2023-02-25T17:19:22;15.70;83.20
36424;DHT22;22458;45.328;9.514;2023-02-25T17:21:55;15.80;83.10
36424;DHT22;22458;45.328;9.514;2023-02-25T17:24:26;15.80;83.00
36424;DHT22;22458;45.328;9.514;2023-02-25T17:26:53;15.80;83.00
36424;DHT22;22458;45.328;9.514;2023-02-25T17:29:19;15.80;83.10
36424;DHT22;22458;45.328;9.514;2023-02-25T17:31:51;15.70;83.10
36424;DHT22;22458;45.328;9.514;2023-02-25T17:34:29;15.70;83.30
36424;DHT22;22458;45.328;9.514;2023-02-25T17:36:58;15.70;83.30
36424;DHT22;22458;45.328;9.514;2023-02-25T17:39:25;15.70;83.40
36424;DHT22;22458;45.328;9.514;2023-02-25T17:41:54;15.60;83.30
36424;DHT22;22458;45.328;9.514;2023-02-25T17:47:02;15.50;83.40
36424;DHT22;22458;45.328;9.514;2023-02-25T17:49:33;15.50;83.60
36424;DHT22;22458;45.328;9.514;2023-02-25T17:52:02;15.40;83.60
36424;DHT22;22458;45.328;9.514;2023-02-25T17:54:32;15.40;83.90
36424;DHT22;22458;45.328;9.514;2023-02-25T17:57:05;15.40;84.00
36424;DHT22;22458;45.328;9.514;2023-02-25T17:59:52;15.40;84.10
36424;DHT22;22458;45.328;9.514;2023-02-25T18:05:27;15.20;84.20
36424;DHT22;22458;45.328;9.514;2023-02-25T18:08:15;15.20;84.30
36424;DHT22;22458;45.328;9.514;2023-02-25T18:10:44;15.20;84.50
36424;DHT22;22458;45.328;9.514;2023-02-25T18:13:24;15.10;84.60
36424;DHT22;22458;45.328;9.514;2023-02-25T18:18:51;15.00;84.70
36424;DHT22;22458;45.328;9.514;2023-02-25T18:21:18;15.00;84.90
36424;DHT22;22458;45.328;9.514;2023-02-25T18:23:44;14.90;84.90
36424;DHT22;22458;45.328;9.514;2023-02-25T18:26:22;14.90;85.00
36424;DHT22;22458;45.328;9.514;2023-02-25T18:28:50;14.90;84.90
36424;DHT22;22458;45.328;9.514;2023-02-25T18:31:16;14.90;85.00
36424;DHT22;22458;45.328;9.514;2023-02-25T18:33:45;14.80;85.10
36424;DHT22;22458;45.328;9.514;2023-02-25T18:36:21;14.70;85.00
36424;DHT22;22458;45.328;9.514;2023-02-25T18:38:48;14.70;85.00
36424;DHT22;22458;45.328;9.514;2023-02-25T18:41:14;14.70;84.90
36424;DHT22;22458;45.328;9.514;2023-02-25T18:43:41;14.70;84.90
36424;DHT22;22458;45.328;9.514;2023-02-25T18:46:08;14.60;84.90
36424;DHT22;22458;45.328;9.514;2023-02-25T18:48:34;14.50;84.90
36424;DHT22;22458;45.328;9.514;2023-02-25T18:51:01;14.50;85.00
36424;DHT22;22458;45.328;9.514;2023-02-25T18:53:27;14.50;85.10
36424;DHT22;22458;45.328;9.514;2023-02-25T18:55:55;14.40;85.30
36424;DHT22;22458;45.328;9.514;2023-02-25T18:58:21;14.30;85.50
36424;DHT22;22458;45.328;9.514;2023-02-25T19:00:50;14.20;85.50
36424;DHT22;22458;45.328;9.514;2023-02-25T19:03:23;14.20;85.60
36424;DHT22;22458;45.328;9.514;2023-02-25T19:05:50;14.20;85.60
36424;DHT22;22458;45.328;9.514;2023-02-25T19:08:16;14.10;85.70
36424;DHT22;22458;45.328;9.514;2023-02-25T19:10:43;14.10;85.80
36424;DHT22;22458;45.328;9.514;2023-02-25T19:13:16;14.00;86.00
36424;DHT22;22458;45.328;9.514;2023-02-25T19:15:43;14.00;86.10
36424;DHT22;22458;45.328;9.514;2023-02-25T19:18:13;14.00;86.10
36424;DHT22;22458;45.328;9.514;2023-02-25T19:20:40;13.90;85.90
36424;DHT22;22458;45.328;9.514;2023-02-25T19:23:10;13.90;85.90
36424;DHT22;22458;45.328;9.514;2023-02-25T19:25:36;13.80;85.80
36424;DHT22;22458;45.328;9.514;2023-02-25T19:28:04;13.80;85.90
36424;DHT22;22458;45.328;9.514;2023-02-25T19:30:32;13.80;85.90
36424;DHT22;22458;45.328;9.514;2023-02-25T19:33:00;13.70;85.70